createdAt,value
2017-08-21T00:01:54.822Z,97.40
2017-08-21T00:04:22.379Z,97.90
2017-08-21T00:06:49.975Z,98.30
2017-08-21T00:09:18.305Z,98.80
2017-08-21T00:11:45.867Z,98.70
2017-08-21T00:14:13.452Z,99.10
2017-08-21T00:16:41.039Z,99.30
2017-08-21T00:19:08.744Z,99.30
2017-08-21T00:21:36.315Z,99.60
2017-08-21T00:24:03.888Z,99.90
2017-08-21T00:26:31.479Z,99.60
2017-08-21T00:28:59.055Z,99.90
2017-08-21T00:31:26.666Z,99.90
2017-08-21T00:33:55.020Z,99.90
2017-08-21T00:36:22.611Z,99.80
2017-08-21T00:38:50.983Z,99.90
2017-08-21T00:41:18.549Z,99.90
2017-08-21T00:43:46.879Z,99.90
2017-08-21T00:46:14.479Z,99.90
2017-08-21T00:48:42.080Z,99.90
2017-08-21T00:51:09.647Z,99.90
2017-08-21T00:53:37.215Z,99.90
2017-08-21T00:56:04.819Z,99.90
2017-08-21T00:58:33.152Z,99.90
2017-08-21T01:01:00.716Z,99.90
2017-08-21T01:03:28.349Z,99.90
2017-08-21T01:05:55.936Z,99.90
2017-08-21T01:08:23.608Z,99.90
2017-08-21T01:10:51.175Z,99.90
2017-08-21T01:13:18.744Z,99.90
2017-08-21T01:15:46.490Z,99.90
2017-08-21T01:18:14.046Z,99.90
2017-08-21T01:20:41.644Z,99.90
2017-08-21T01:23:10.047Z,99.90
2017-08-21T01:25:37.615Z,99.90
2017-08-21T01:28:05.295Z,99.90
2017-08-21T01:30:32.926Z,99.90
2017-08-21T01:33:00.543Z,99.80
2017-08-21T01:35:28.894Z,99.60
2017-08-21T01:37:56.467Z,99.20
2017-08-21T01:40:24.069Z,99.80
2017-08-21T01:42:51.640Z,99.60
2017-08-21T01:45:19.198Z,99.70
2017-08-21T01:47:46.798Z,99.70
2017-08-21T01:50:14.400Z,99.90
2017-08-21T01:52:42.007Z,99.30
2017-08-21T01:55:09.579Z,98.40
2017-08-21T01:57:37.176Z,98.80
2017-08-21T02:00:04.763Z,99.50
2017-08-21T02:02:32.327Z,99.90
2017-08-21T02:04:59.935Z,99.90
2017-08-21T02:07:28.313Z,99.50
2017-08-21T02:09:56.647Z,99.60
2017-08-21T02:12:24.199Z,99.60
2017-08-21T02:14:51.788Z,99.90
2017-08-21T02:17:19.359Z,99.90
2017-08-21T02:19:47.720Z,99.80
2017-08-21T02:22:15.279Z,99.70
2017-08-21T02:24:42.860Z,99.50
2017-08-21T02:27:10.467Z,99.60
2017-08-21T02:29:38.042Z,99.80
2017-08-21T02:32:05.607Z,99.90
2017-08-21T02:34:33.200Z,99.90
2017-08-21T02:37:01.544Z,99.90
2017-08-21T02:39:29.139Z,99.90
2017-08-21T02:41:56.704Z,99.90
2017-08-21T02:44:24.275Z,99.90
2017-08-21T02:46:51.856Z,99.90
2017-08-21T02:49:19.572Z,99.60
2017-08-21T02:51:47.167Z,98.90
2017-08-21T02:54:14.880Z,98.70
2017-08-21T02:56:43.252Z,99.60
2017-08-21T02:59:11.608Z,99.90
2017-08-21T03:01:39.211Z,99.90
2017-08-21T03:04:06.887Z,99.90
2017-08-21T03:06:34.455Z,99.90
2017-08-21T03:09:02.020Z,99.90
2017-08-21T03:11:29.648Z,99.90
2017-08-21T03:13:57.212Z,99.40
2017-08-21T03:16:24.819Z,99.80
2017-08-21T03:18:52.519Z,99.60
2017-08-21T03:21:20.096Z,99.90
2017-08-21T03:23:53.226Z,99.90
2017-08-21T03:26:20.855Z,99.90
2017-08-21T03:28:48.429Z,99.90
2017-08-21T03:31:16.018Z,99.90
2017-08-21T03:33:43.583Z,99.90
2017-08-21T03:36:11.913Z,99.90
2017-08-21T03:38:39.520Z,99.90
2017-08-21T03:41:07.844Z,99.90
2017-08-21T03:43:35.427Z,99.90
2017-08-21T03:46:03.018Z,98.60
2017-08-21T03:48:30.571Z,97.80
2017-08-21T03:50:58.975Z,97.60
2017-08-21T03:53:26.544Z,97.60
2017-08-21T03:55:54.139Z,97.50
2017-08-21T03:58:21.765Z,98.90
2017-08-21T04:00:49.443Z,98.90
2017-08-21T04:03:17.044Z,99.20
2017-08-21T04:05:44.745Z,99.20
2017-08-21T04:08:12.314Z,99.30
2017-08-21T04:10:39.905Z,99.70
2017-08-21T04:13:07.485Z,99.90
2017-08-21T04:15:35.072Z,99.90
2017-08-21T04:18:02.763Z,99.70
2017-08-21T04:20:30.360Z,99.60
2017-08-21T04:22:58.732Z,99.80
2017-08-21T04:25:26.381Z,99.80
2017-08-21T04:27:54.011Z,99.90
2017-08-21T04:30:21.610Z,99.90
2017-08-21T04:32:49.191Z,99.80
2017-08-21T04:35:17.551Z,99.90
2017-08-21T04:37:45.880Z,99.90
2017-08-21T04:40:13.439Z,99.90
2017-08-21T04:42:41.023Z,99.90
2017-08-21T04:45:08.587Z,99.90
2017-08-21T04:47:36.211Z,99.90
2017-08-21T04:50:03.787Z,99.90
2017-08-21T04:52:31.380Z,99.90
2017-08-21T04:54:59.740Z,99.90
2017-08-21T04:57:27.299Z,99.90
2017-08-21T04:59:54.879Z,99.90
2017-08-21T05:02:23.231Z,99.90
2017-08-21T05:04:51.687Z,99.90
2017-08-21T05:07:19.341Z,99.90
2017-08-21T05:09:46.952Z,99.90
2017-08-21T05:12:15.408Z,99.20
2017-08-21T05:14:42.968Z,99.20
2017-08-21T05:17:10.573Z,99.90
2017-08-21T05:19:38.143Z,99.90
2017-08-21T05:22:05.744Z,99.90
2017-08-21T05:24:33.592Z,99.40
2017-08-21T05:27:02.079Z,99.20
2017-08-21T05:29:29.683Z,99.70
2017-08-21T05:31:57.263Z,99.40
2017-08-21T05:34:24.879Z,99.90
2017-08-21T05:36:52.431Z,99.30
2017-08-21T05:39:20.031Z,99.60
2017-08-21T05:41:47.596Z,99.80
2017-08-21T05:44:15.164Z,99.60
2017-08-21T05:46:42.773Z,99.90
2017-08-21T05:49:10.351Z,99.20
2017-08-21T05:51:37.941Z,98.60
2017-08-21T05:54:05.546Z,98.60
2017-08-21T05:56:33.103Z,98.40
2017-08-21T05:59:00.711Z,99.10
2017-08-21T06:01:28.281Z,99.10
2017-08-21T06:03:55.834Z,99.80
2017-08-21T06:06:23.416Z,98.90
2017-08-21T06:08:50.979Z,97.90
2017-08-21T06:11:18.590Z,98.50
2017-08-21T06:13:46.159Z,98.40
2017-08-21T06:16:13.744Z,98.50
2017-08-21T06:18:41.370Z,98.60
2017-08-21T06:21:08.932Z,99.50
2017-08-21T06:23:36.523Z,99.20
2017-08-21T06:26:04.119Z,99.90
2017-08-21T06:28:32.480Z,99.40
2017-08-21T06:31:00.088Z,99.40
2017-08-21T06:33:27.658Z,99.50
2017-08-21T06:35:55.216Z,99.60
2017-08-21T06:38:22.836Z,99.70
2017-08-21T06:40:51.203Z,98.70
2017-08-21T06:43:19.572Z,99.30
2017-08-21T06:45:47.151Z,99.30
2017-08-21T06:48:15.515Z,99.90
2017-08-21T06:50:43.847Z,99.90
2017-08-21T06:53:12.227Z,99.90
2017-08-21T06:56:28.266Z,98.70
2017-08-21T06:58:55.883Z,98.60
2017-08-21T07:01:23.470Z,98.70
2017-08-21T07:03:51.040Z,98.30
2017-08-21T07:06:19.475Z,99.30
2017-08-21T07:08:47.151Z,99.20
2017-08-21T07:11:14.792Z,99.30
2017-08-21T07:13:56.299Z,99.10
2017-08-21T07:16:23.892Z,99.20
2017-08-21T07:18:52.225Z,99.60
2017-08-21T07:21:19.789Z,99.20
2017-08-21T07:23:47.399Z,99.90
2017-08-21T07:26:14.964Z,98.20
2017-08-21T07:28:42.555Z,98.70
2017-08-21T07:31:10.115Z,98.20
2017-08-21T07:33:37.774Z,97.60
2017-08-21T07:36:05.351Z,97.30
2017-08-21T07:38:32.987Z,97.70
2017-08-21T07:41:00.558Z,97.70
2017-08-21T07:43:28.165Z,96.80
2017-08-21T07:45:55.802Z,96.60
2017-08-21T07:48:24.167Z,98.20
2017-08-21T07:50:51.911Z,97.90
2017-08-21T07:53:19.663Z,96.80
2017-08-21T07:55:47.264Z,96.50
2017-08-21T07:58:15.611Z,96.00
2017-08-21T08:00:43.219Z,96.00
2017-08-21T08:03:10.797Z,96.50
2017-08-21T08:05:38.427Z,96.50
2017-08-21T08:08:06.879Z,96.60
2017-08-21T08:10:34.487Z,96.60
2017-08-21T08:13:02.055Z,95.60
2017-08-21T08:15:29.941Z,94.80
2017-08-21T08:17:57.719Z,93.80
2017-08-21T08:20:25.287Z,94.50
2017-08-21T08:22:52.915Z,95.30
2017-08-21T08:25:20.479Z,95.00
2017-08-21T08:27:48.055Z,94.20
2017-08-21T08:30:15.759Z,95.60
2017-08-21T08:32:43.339Z,96.10
2017-08-21T08:35:10.907Z,96.80
2017-08-21T08:37:38.601Z,94.20
2017-08-21T08:40:06.175Z,93.40
2017-08-21T08:42:33.749Z,91.10
2017-08-21T08:45:01.351Z,91.50
2017-08-21T08:47:28.928Z,91.90
2017-08-21T08:49:56.540Z,92.00
2017-08-21T08:52:24.214Z,91.00
2017-08-21T08:54:51.818Z,91.30
2017-08-21T08:57:19.428Z,91.10
2017-08-21T08:59:46.988Z,91.60
2017-08-21T09:02:14.592Z,90.60
2017-08-21T09:04:42.163Z,90.20
2017-08-21T09:07:10.509Z,90.10
2017-08-21T09:09:38.127Z,90.10
2017-08-21T09:12:05.708Z,87.00
2017-08-21T09:14:33.332Z,89.40
2017-08-21T09:17:01.675Z,86.70
2017-08-21T09:19:29.259Z,86.60
2017-08-21T09:21:56.876Z,81.20
2017-08-21T09:24:24.471Z,82.10
2017-08-21T09:26:52.916Z,84.60
2017-08-21T09:29:20.510Z,84.60
2017-08-21T09:31:48.871Z,78.80
2017-08-21T09:34:16.516Z,78.80
2017-08-21T09:36:44.108Z,80.50
2017-08-21T09:39:12.563Z,78.80
2017-08-21T09:41:40.144Z,78.80
2017-08-21T09:44:08.531Z,81.30
2017-08-21T09:46:36.871Z,84.60
2017-08-21T09:49:04.439Z,84.60
2017-08-21T09:51:32.048Z,88.80
2017-08-21T09:53:59.641Z,76.70
2017-08-21T09:56:27.225Z,72.60
2017-08-21T09:58:55.598Z,68.20
2017-08-21T10:01:23.172Z,68.20
2017-08-21T10:03:51.554Z,65.10
2017-08-21T10:06:19.923Z,67.50
2017-08-21T10:08:47.485Z,67.40
2017-08-21T10:11:15.852Z,68.90
2017-08-21T10:13:44.212Z,66.90
2017-08-21T10:16:11.811Z,66.60
2017-08-21T10:18:39.400Z,69.80
2017-08-21T10:21:07.018Z,66.90
2017-08-21T10:23:35.410Z,76.30
2017-08-21T10:26:15.298Z,76.40
2017-08-21T10:28:42.904Z,72.90
2017-08-21T10:31:11.238Z,68.70
2017-08-21T10:33:38.808Z,68.60
2017-08-21T10:36:06.420Z,66.90
2017-08-21T10:38:34.031Z,71.90
2017-08-21T10:41:01.595Z,70.40
2017-08-21T10:43:29.167Z,64.70
2017-08-21T10:45:57.527Z,69.20
2017-08-21T10:48:25.091Z,68.90
2017-08-21T10:50:52.706Z,64.90
2017-08-21T10:53:20.287Z,68.40
2017-08-21T10:55:47.869Z,70.30
2017-08-21T10:58:15.470Z,73.00
2017-08-21T11:00:43.041Z,75.30
2017-08-21T11:03:10.710Z,74.80
2017-08-21T11:05:38.281Z,80.00
2017-08-21T11:08:05.845Z,76.60
2017-08-21T11:10:33.459Z,74.70
2017-08-21T11:13:01.027Z,71.60
2017-08-21T11:15:28.631Z,75.50
2017-08-21T11:17:56.203Z,75.60
2017-08-21T11:20:24.531Z,73.50
2017-08-21T11:22:52.295Z,73.50
2017-08-21T11:25:19.931Z,78.30
2017-08-21T11:27:47.535Z,74.60
2017-08-21T11:30:15.103Z,77.20
2017-08-21T11:32:42.663Z,81.00
2017-08-21T11:35:10.372Z,81.90
2017-08-21T11:37:37.927Z,77.60
2017-08-21T11:40:05.525Z,76.00
2017-08-21T11:42:33.082Z,74.70
2017-08-21T11:45:00.642Z,74.60
2017-08-21T11:47:28.243Z,67.90
2017-08-21T11:49:56.567Z,68.10
2017-08-21T11:52:24.159Z,68.10
2017-08-21T11:54:51.756Z,72.50
2017-08-21T11:57:19.372Z,73.50
2017-08-21T11:59:46.935Z,66.30
2017-08-21T12:02:14.674Z,65.10
2017-08-21T12:04:42.291Z,68.90
2017-08-21T12:07:09.864Z,73.70
2017-08-21T12:09:37.424Z,71.50
2017-08-21T12:12:05.135Z,73.00
2017-08-21T12:14:32.731Z,72.90
2017-08-21T12:17:00.298Z,65.20
2017-08-21T12:19:27.856Z,65.10
2017-08-21T12:21:55.543Z,71.20
2017-08-21T12:24:23.115Z,72.20
2017-08-21T12:26:50.688Z,69.60
2017-08-21T12:29:18.316Z,70.40
2017-08-21T12:31:45.879Z,69.60
2017-08-21T12:34:13.491Z,69.70
2017-08-21T12:36:41.061Z,68.80
2017-08-21T12:39:08.653Z,69.50
2017-08-21T12:41:36.223Z,65.50
2017-08-21T12:44:03.787Z,69.00
2017-08-21T12:46:31.383Z,67.10
2017-08-21T12:48:58.955Z,68.10
2017-08-21T12:51:26.591Z,68.60
2017-08-21T12:53:55.080Z,65.80
2017-08-21T12:56:22.660Z,65.80
2017-08-21T12:58:50.253Z,71.90
2017-08-21T13:01:17.815Z,66.70
2017-08-21T13:03:45.369Z,65.50
2017-08-21T13:06:12.961Z,68.50
2017-08-21T13:08:41.294Z,68.40
2017-08-21T13:11:08.859Z,68.30
2017-08-21T13:13:36.455Z,70.60
2017-08-21T13:16:04.814Z,70.30
2017-08-21T13:18:32.428Z,70.20
2017-08-21T13:21:00.024Z,71.60
2017-08-21T13:23:27.580Z,70.90
2017-08-21T13:25:55.180Z,70.00
2017-08-21T13:28:22.752Z,69.30
2017-08-21T13:30:50.447Z,70.40
2017-08-21T13:33:18.012Z,75.00
2017-08-21T13:35:45.567Z,71.80
2017-08-21T13:38:13.147Z,71.20
2017-08-21T13:40:40.720Z,71.60
2017-08-21T13:43:09.077Z,68.20
2017-08-21T13:45:36.665Z,68.10
2017-08-21T13:48:04.323Z,69.00
2017-08-21T13:50:31.919Z,69.20
2017-08-21T13:52:59.512Z,69.90
2017-08-21T13:55:27.117Z,69.50
2017-08-21T13:57:54.745Z,69.60
2017-08-21T14:00:22.314Z,70.30
2017-08-21T14:02:49.900Z,71.30
2017-08-21T14:05:17.463Z,72.70
2017-08-21T14:07:45.074Z,68.40
2017-08-21T14:10:12.633Z,69.20
2017-08-21T14:12:40.191Z,67.20
2017-08-21T14:15:08.573Z,66.20
2017-08-21T14:17:36.911Z,63.80
2017-08-21T14:20:04.579Z,63.80
2017-08-21T14:22:32.180Z,64.20
2017-08-21T14:25:00.550Z,64.20
2017-08-21T14:27:28.147Z,64.20
2017-08-21T14:29:55.718Z,64.40
2017-08-21T14:32:23.289Z,62.50
2017-08-21T14:34:50.987Z,62.00
2017-08-21T14:37:18.580Z,67.70
2017-08-21T14:39:46.184Z,67.50
2017-08-21T14:42:13.926Z,62.50
2017-08-21T14:44:41.523Z,64.30
2017-08-21T14:47:09.848Z,65.50
2017-08-21T14:49:37.459Z,65.50
2017-08-21T14:52:05.816Z,64.10
2017-08-21T14:54:33.372Z,63.40
2017-08-21T14:57:00.980Z,64.70
2017-08-21T14:59:28.534Z,69.50
2017-08-21T15:01:56.099Z,66.60
2017-08-21T15:04:23.692Z,66.50
2017-08-21T15:06:51.300Z,68.80
2017-08-21T15:09:19.635Z,67.00
2017-08-21T15:11:47.197Z,66.90
2017-08-21T15:14:14.792Z,67.50
2017-08-21T15:16:43.119Z,69.10
2017-08-21T15:19:10.728Z,69.40
2017-08-21T15:21:39.076Z,70.50
2017-08-21T15:24:06.772Z,70.40
2017-08-21T15:26:34.344Z,67.30
2017-08-21T15:29:01.972Z,67.40
2017-08-21T15:31:30.356Z,68.80
2017-08-21T15:33:57.946Z,68.70
2017-08-21T15:36:25.577Z,69.40
2017-08-21T15:39:21.890Z,70.90
2017-08-21T15:41:51.240Z,71.00
2017-08-21T15:44:18.816Z,70.90
2017-08-21T15:46:46.379Z,72.20
2017-08-21T15:51:43.836Z,69.70
2017-08-21T15:54:11.437Z,68.80
2017-08-21T15:56:39.012Z,73.70
2017-08-21T15:59:06.571Z,70.30
2017-08-21T16:01:34.167Z,72.60
2017-08-21T16:04:01.739Z,68.90
2017-08-21T16:06:29.320Z,70.70
2017-08-21T16:08:56.924Z,72.40
2017-08-21T16:11:24.479Z,71.40
2017-08-21T16:13:52.076Z,69.80
2017-08-21T16:16:19.660Z,69.40
2017-08-21T16:18:47.215Z,68.80
2017-08-21T16:21:14.833Z,68.60
2017-08-21T16:23:42.435Z,70.50
2017-08-21T16:26:09.995Z,64.60
2017-08-21T16:28:37.566Z,67.50
2017-08-21T16:31:05.199Z,66.90
2017-08-21T16:33:32.782Z,60.50
2017-08-21T16:36:00.354Z,66.60
2017-08-21T16:38:27.963Z,65.50
2017-08-21T16:40:55.535Z,66.50
2017-08-21T16:43:23.111Z,68.20
2017-08-21T16:45:50.729Z,69.00
2017-08-21T16:48:18.316Z,69.50
2017-08-21T16:50:45.908Z,68.00
2017-08-21T16:53:13.495Z,68.80
2017-08-21T16:55:41.108Z,70.00
2017-08-21T16:58:08.663Z,70.60
2017-08-21T17:00:36.231Z,73.30
2017-08-21T17:03:03.836Z,75.60
2017-08-21T17:05:31.396Z,75.40
2017-08-21T17:07:59.008Z,70.90
2017-08-21T17:10:26.587Z,73.60
2017-08-21T17:12:55.730Z,71.80
2017-08-21T17:18:38.432Z,78.00
2017-08-21T17:21:06.223Z,74.60
2017-08-21T17:23:34.292Z,76.60
2017-08-21T17:26:01.875Z,78.30
2017-08-21T17:28:29.580Z,76.30
2017-08-21T17:30:57.137Z,74.40
2017-08-21T17:33:24.760Z,78.70
2017-08-21T17:35:52.328Z,80.60
2017-08-21T17:38:19.899Z,79.70
2017-08-21T17:40:47.551Z,75.80
2017-08-21T17:43:15.533Z,75.20
2017-08-21T17:45:43.479Z,74.10
2017-08-21T17:48:11.089Z,74.60
2017-08-21T17:50:38.668Z,75.80
2017-08-21T17:53:06.914Z,75.70
2017-08-21T17:55:35.186Z,75.50
2017-08-21T17:58:04.821Z,75.50
2017-08-21T18:00:32.533Z,76.60
2017-08-21T18:03:00.153Z,75.90
2017-08-21T18:05:27.882Z,76.00
2017-08-21T18:07:55.526Z,80.30
2017-08-21T18:10:23.121Z,77.90
2017-08-21T18:15:37.452Z,78.70
2017-08-21T18:18:05.080Z,78.60
2017-08-21T18:20:32.656Z,78.00
2017-08-21T18:23:00.244Z,78.40
2017-08-21T18:25:28.196Z,85.60
2017-08-21T18:27:55.771Z,81.70
2017-08-21T18:30:23.366Z,84.40
2017-08-21T18:32:50.971Z,85.70
2017-08-21T18:35:18.666Z,84.60
2017-08-21T18:37:46.356Z,83.00
2017-08-21T18:40:13.955Z,82.50
2017-08-21T18:42:41.552Z,84.10
2017-08-21T18:45:09.152Z,84.90
2017-08-21T18:47:36.730Z,87.90
2017-08-21T18:50:04.341Z,88.60
2017-08-21T18:52:31.943Z,90.20
2017-08-21T18:54:59.538Z,90.90
2017-08-21T18:57:27.148Z,90.50
2017-08-21T18:59:54.731Z,89.80
2017-08-21T19:02:22.396Z,90.60
2017-08-21T19:04:49.975Z,88.00
2017-08-21T19:07:17.591Z,88.00
2017-08-21T19:09:45.194Z,88.80
2017-08-21T19:12:12.779Z,90.80
2017-08-21T19:14:40.369Z,91.40
2017-08-21T19:17:07.952Z,91.60
2017-08-21T19:19:35.569Z,90.90
2017-08-21T19:22:03.188Z,90.10
2017-08-21T19:24:30.775Z,90.50
2017-08-21T19:26:58.358Z,89.60
2017-08-21T19:29:26.001Z,90.20
2017-08-21T19:31:53.570Z,90.20
2017-08-21T19:34:21.188Z,90.00
2017-08-21T19:36:48.773Z,90.80
2017-08-21T19:39:16.488Z,92.30
2017-08-21T19:41:44.068Z,91.40
2017-08-21T19:44:11.648Z,91.00
2017-08-21T19:46:39.240Z,91.20
2017-08-21T19:49:06.822Z,91.30
2017-08-21T19:51:34.394Z,92.30
2017-08-21T19:54:02.014Z,91.50
2017-08-21T19:56:29.579Z,91.20
2017-08-21T19:58:57.179Z,91.30
2017-08-21T20:01:24.796Z,91.70
2017-08-21T20:03:52.378Z,91.80
2017-08-21T20:06:20.007Z,92.10
2017-08-21T20:08:47.579Z,91.80
2017-08-21T20:11:15.148Z,92.90
2017-08-21T20:13:42.752Z,94.00
2017-08-21T20:16:10.329Z,94.30
2017-08-21T20:18:37.905Z,94.70
2017-08-21T20:21:05.507Z,95.10
2017-08-21T20:23:33.140Z,95.00
2017-08-21T20:26:00.753Z,95.60
2017-08-21T20:28:28.340Z,95.30
2017-08-21T20:30:55.907Z,95.20
2017-08-21T20:33:23.535Z,95.50
2017-08-21T20:35:51.106Z,95.70
2017-08-21T20:38:18.737Z,95.50
2017-08-21T20:40:46.316Z,95.90
2017-08-21T20:43:14.132Z,94.50
2017-08-21T20:45:41.794Z,95.30
2017-08-21T20:48:09.393Z,95.70
2017-08-21T20:50:36.994Z,95.80
2017-08-21T20:53:04.604Z,95.20
2017-08-21T20:55:32.178Z,95.60
2017-08-21T20:57:59.832Z,96.20
2017-08-21T21:00:27.404Z,96.40
2017-08-21T21:02:55.116Z,97.00
2017-08-21T21:05:22.732Z,96.70
2017-08-21T21:07:50.315Z,97.00
2017-08-21T21:10:17.927Z,97.20
2017-08-21T21:12:45.500Z,96.80
2017-08-21T21:15:13.067Z,97.30
2017-08-21T21:17:40.672Z,97.60
2017-08-21T21:20:08.253Z,97.70
2017-08-21T21:22:35.816Z,98.20
2017-08-21T21:25:03.412Z,98.20
2017-08-21T21:27:30.976Z,98.00
2017-08-21T21:29:58.595Z,98.00
2017-08-21T21:32:26.176Z,98.30
2017-08-21T21:34:53.753Z,98.00
2017-08-21T21:37:21.359Z,97.90
2017-08-21T21:39:48.961Z,98.10
2017-08-21T21:42:16.608Z,98.00
2017-08-21T21:44:44.176Z,98.60
2017-08-21T21:47:11.759Z,98.60
2017-08-21T21:49:39.360Z,98.70
2017-08-21T21:52:06.928Z,98.60
2017-08-21T21:54:34.543Z,98.70
2017-08-21T21:57:02.118Z,99.10
2017-08-21T21:59:29.686Z,98.70
2017-08-21T22:01:57.267Z,98.80
2017-08-21T22:04:24.834Z,98.90
2017-08-21T22:06:52.435Z,99.20
2017-08-21T22:09:20.011Z,99.00
2017-08-21T22:11:47.587Z,98.80
2017-08-21T22:14:15.183Z,98.90
2017-08-21T22:16:42.743Z,99.50
2017-08-21T22:19:10.347Z,98.90
2017-08-21T22:21:37.939Z,99.10
2017-08-21T22:24:05.529Z,99.10
2017-08-21T22:26:33.136Z,99.30
2017-08-21T22:29:00.715Z,99.90
2017-08-21T22:31:28.300Z,99.30
2017-08-21T22:33:55.888Z,99.90
2017-08-21T22:36:23.506Z,99.80
2017-08-21T22:38:51.083Z,99.80
2017-08-21T22:41:18.640Z,99.90
2017-08-21T22:43:46.261Z,99.90
2017-08-21T22:46:13.860Z,99.90
2017-08-21T22:48:41.442Z,99.90
2017-08-21T22:51:09.016Z,99.90
2017-08-21T22:53:36.635Z,99.90
2017-08-21T22:56:04.196Z,99.90
2017-08-21T22:58:31.759Z,99.90
2017-08-21T23:00:59.352Z,99.90
2017-08-21T23:03:26.920Z,99.90
2017-08-21T23:05:54.631Z,99.90
2017-08-21T23:08:22.198Z,99.90
2017-08-21T23:10:49.808Z,99.90
2017-08-21T23:13:17.367Z,99.90
2017-08-21T23:15:45.704Z,99.90
2017-08-21T23:18:13.427Z,99.90
2017-08-21T23:20:41.059Z,99.90
2017-08-21T23:23:08.669Z,99.90
2017-08-21T23:25:36.235Z,99.90
2017-08-21T23:28:03.834Z,99.90
2017-08-21T23:30:31.428Z,99.90
2017-08-21T23:32:58.996Z,99.90
2017-08-21T23:35:26.595Z,99.90
2017-08-21T23:37:54.151Z,99.90
2017-08-21T23:40:21.719Z,99.90
2017-08-21T23:42:49.303Z,99.90
2017-08-21T23:45:16.872Z,99.90
2017-08-21T23:47:44.475Z,99.90
2017-08-21T23:50:12.096Z,99.90
2017-08-21T23:52:39.779Z,99.90
2017-08-21T23:55:07.419Z,99.90
2017-08-21T23:57:34.983Z,99.90
